createdAt,value
2018-09-20T00:00:33.390Z,9.80
2018-09-20T00:03:02.036Z,13.70
2018-09-20T00:05:30.641Z,18.07
2018-09-20T00:07:59.250Z,13.40
2018-09-20T00:10:29.385Z,16.03
2018-09-20T00:12:58.933Z,12.47
2018-09-20T00:15:27.550Z,12.67
2018-09-20T00:17:56.237Z,9.30
2018-09-20T00:20:24.835Z,12.40
2018-09-20T00:22:53.536Z,15.60
2018-09-20T00:25:22.191Z,15.80
2018-09-20T00:27:50.867Z,12.40
2018-09-20T00:30:19.573Z,9.23
2018-09-20T00:32:48.133Z,13.63
2018-09-20T00:35:16.721Z,21.33
2018-09-20T00:37:45.317Z,16.90
2018-09-20T00:40:13.971Z,12.83
2018-09-20T00:42:42.756Z,14.03
2018-09-20T00:45:11.373Z,11.60
2018-09-20T00:47:39.966Z,13.03
2018-09-20T00:50:08.464Z,16.17
2018-09-20T00:52:37.091Z,14.77
2018-09-20T00:55:06.884Z,19.33
2018-09-20T00:57:35.764Z,14.37
2018-09-20T01:00:04.445Z,14.83
2018-09-20T01:02:33.183Z,17.20
2018-09-20T01:05:01.790Z,12.80
2018-09-20T01:07:30.456Z,13.53
2018-09-20T01:09:59.148Z,12.83
2018-09-20T01:12:27.827Z,17.23
2018-09-20T01:14:56.411Z,16.17
2018-09-20T01:17:25.080Z,14.73
2018-09-20T01:19:53.634Z,15.13
2018-09-20T01:22:22.249Z,16.07
2018-09-20T01:24:50.863Z,17.13
2018-09-20T01:27:19.534Z,11.73
2018-09-20T01:29:48.170Z,16.70
2018-09-20T01:32:16.848Z,16.73
2018-09-20T01:34:45.556Z,14.53
2018-09-20T01:37:14.146Z,17.60
2018-09-20T01:39:43.115Z,13.53
2018-09-20T01:42:11.942Z,14.33
2018-09-20T01:44:42.033Z,18.70
2018-09-20T01:47:10.714Z,13.17
2018-09-20T01:49:39.453Z,15.17
2018-09-20T01:52:08.331Z,16.60
2018-09-20T01:54:37.133Z,15.23
2018-09-20T01:57:05.975Z,14.17
2018-09-20T01:59:34.959Z,16.80
2018-09-20T02:02:04.096Z,17.27
2018-09-20T02:04:34.031Z,16.23
2018-09-20T02:07:02.902Z,16.00
2018-09-20T02:09:32.871Z,14.67
2018-09-20T02:12:02.632Z,15.30
2018-09-20T02:14:31.382Z,13.40
2018-09-20T02:17:01.174Z,18.40
2018-09-20T02:19:29.777Z,17.43
2018-09-20T02:21:58.416Z,16.27
2018-09-20T02:24:26.954Z,13.83
2018-09-20T02:26:55.713Z,21.87
2018-09-20T02:29:24.308Z,19.30
2018-09-20T02:31:52.977Z,16.33
2018-09-20T02:34:21.578Z,20.40
2018-09-20T02:36:50.154Z,17.37
2018-09-20T02:39:18.716Z,15.57
2018-09-20T02:41:47.421Z,12.90
2018-09-20T02:44:15.994Z,16.93
2018-09-20T02:46:44.705Z,15.60
2018-09-20T02:49:13.271Z,20.23
2018-09-20T02:51:41.987Z,19.13
2018-09-20T02:54:10.561Z,15.80
2018-09-20T02:56:39.226Z,16.83
2018-09-20T02:59:07.901Z,14.00
2018-09-20T03:01:36.569Z,11.97
2018-09-20T03:04:05.160Z,13.70
2018-09-20T03:06:33.756Z,17.00
2018-09-20T03:09:02.537Z,19.43
2018-09-20T03:11:31.298Z,15.13
2018-09-20T03:13:59.958Z,13.47
2018-09-20T03:16:28.590Z,15.67
2018-09-20T03:18:58.087Z,12.93
2018-09-20T03:21:26.787Z,17.83
2018-09-20T03:23:55.415Z,17.63
2018-09-20T03:26:24.443Z,15.73
2018-09-20T03:28:53.110Z,14.73
2018-09-20T03:31:21.801Z,14.80
2018-09-20T03:33:50.519Z,12.83
2018-09-20T03:36:19.127Z,13.67
2018-09-20T03:38:48.757Z,12.63
2018-09-20T03:41:17.347Z,16.00
2018-09-20T03:43:46.002Z,18.43
2018-09-20T03:46:14.602Z,21.70
2018-09-20T03:48:43.211Z,16.70
2018-09-20T03:51:12.691Z,17.97
2018-09-20T03:53:41.194Z,19.30
2018-09-20T03:56:09.782Z,15.37
2018-09-20T03:58:38.334Z,15.53
2018-09-20T04:01:06.979Z,21.80
2018-09-20T04:03:35.562Z,17.40
2018-09-20T04:06:04.135Z,17.10
2018-09-20T04:08:32.857Z,17.77
2018-09-20T04:11:01.668Z,16.07
2018-09-20T04:13:31.233Z,19.30
2018-09-20T04:15:59.810Z,13.50
2018-09-20T04:18:28.360Z,16.53
2018-09-20T04:20:57.978Z,16.10
2018-09-20T04:23:26.655Z,14.17
2018-09-20T04:25:55.214Z,17.73
2018-09-20T04:28:23.770Z,14.63
2018-09-20T04:30:52.378Z,15.50
2018-09-20T04:33:20.944Z,17.63
2018-09-20T04:35:49.500Z,15.77
2018-09-20T04:38:18.180Z,14.57
2018-09-20T04:40:47.018Z,23.33
2018-09-20T04:43:15.587Z,16.27
2018-09-20T04:45:44.285Z,14.00
2018-09-20T04:48:12.900Z,21.60
2018-09-20T04:50:41.555Z,18.77
2018-09-20T04:53:10.295Z,18.10
2018-09-20T04:55:38.963Z,15.07
2018-09-20T04:58:07.608Z,14.77
2018-09-20T05:00:36.214Z,20.60
2018-09-20T05:03:04.864Z,15.60
2018-09-20T05:05:33.481Z,14.33
2018-09-20T05:08:02.085Z,16.37
2018-09-20T05:10:30.951Z,14.87
2018-09-20T05:12:59.645Z,18.23
2018-09-20T05:15:28.312Z,20.90
2018-09-20T05:17:57.812Z,17.67
2018-09-20T05:20:26.498Z,19.33
2018-09-20T05:22:55.186Z,17.10
2018-09-20T05:25:23.718Z,16.87
2018-09-20T05:27:52.396Z,17.60
2018-09-20T05:30:21.077Z,17.03
2018-09-20T05:32:49.720Z,18.43
2018-09-20T05:35:18.360Z,21.27
2018-09-20T05:37:47.112Z,15.87
2018-09-20T05:40:15.855Z,15.07
2018-09-20T05:42:44.462Z,15.17
2018-09-20T05:45:13.148Z,17.43
2018-09-20T05:47:42.882Z,20.63
2018-09-20T05:50:11.575Z,20.87
2018-09-20T05:52:40.241Z,18.17
2018-09-20T05:55:08.917Z,16.17
2018-09-20T05:57:37.581Z,17.87
2018-09-20T06:00:07.026Z,22.10
2018-09-20T06:02:35.842Z,18.67
2018-09-20T06:05:04.585Z,20.13
2018-09-20T06:07:33.435Z,21.60
2018-09-20T06:10:02.204Z,16.17
2018-09-20T06:12:30.859Z,16.77
2018-09-20T06:14:59.610Z,18.27
2018-09-20T06:17:28.249Z,18.70
2018-09-20T06:19:56.947Z,14.03
2018-09-20T06:22:25.683Z,17.70
2018-09-20T06:24:54.393Z,15.93
2018-09-20T06:27:22.985Z,16.13
2018-09-20T06:29:51.649Z,36.07
2018-09-20T06:32:20.405Z,23.27
2018-09-20T06:34:49.159Z,22.07
2018-09-20T06:37:17.700Z,18.10
2018-09-20T06:39:46.395Z,17.27
2018-09-20T06:42:15.738Z,22.20
2018-09-20T06:44:45.346Z,22.20
2018-09-20T06:47:14.146Z,21.50
2018-09-20T06:49:42.958Z,22.10
2018-09-20T06:52:11.735Z,16.53
2018-09-20T06:54:40.531Z,20.47
2018-09-20T06:57:09.213Z,14.03
2018-09-20T06:59:37.883Z,17.87
2018-09-20T07:02:06.797Z,16.97
2018-09-20T07:04:35.486Z,19.77
2018-09-20T07:07:04.173Z,22.43
2018-09-20T07:09:32.769Z,19.83
2018-09-20T07:12:01.438Z,18.80
2018-09-20T07:14:30.023Z,15.30
2018-09-20T07:16:59.261Z,21.17
2018-09-20T07:19:27.904Z,20.50
2018-09-20T07:21:57.672Z,16.70
2018-09-20T07:24:26.242Z,14.43
2018-09-20T07:26:54.888Z,20.37
2018-09-20T07:29:23.567Z,22.80
2018-09-20T07:31:52.263Z,18.53
2018-09-20T07:34:20.857Z,14.30
2018-09-20T07:36:49.419Z,15.80
2018-09-20T07:39:18.017Z,15.07
2018-09-20T07:41:46.700Z,28.03
2018-09-20T07:44:15.381Z,17.53
2018-09-20T07:46:44.020Z,15.07
2018-09-20T07:49:12.661Z,14.53
2018-09-20T07:51:41.379Z,15.30
2018-09-20T07:54:10.128Z,17.43
2018-09-20T07:56:38.744Z,17.23
2018-09-20T07:59:07.383Z,13.23
2018-09-20T08:01:36.116Z,17.63
2018-09-20T08:04:04.751Z,13.37
2018-09-20T08:06:33.551Z,14.17
2018-09-20T08:09:02.310Z,14.47
2018-09-20T08:11:31.097Z,14.00
2018-09-20T08:13:59.763Z,13.63
2018-09-20T08:16:28.373Z,19.80
2018-09-20T08:18:57.011Z,15.43
2018-09-20T08:21:25.888Z,12.60
2018-09-20T08:23:54.595Z,16.87
2018-09-20T08:26:23.259Z,19.07
2018-09-20T08:28:52.285Z,12.70
2018-09-20T08:31:21.161Z,17.73
2018-09-20T08:33:50.960Z,16.87
2018-09-20T08:36:19.868Z,16.80
2018-09-20T08:38:48.842Z,14.90
2018-09-20T08:41:17.550Z,16.27
2018-09-20T08:43:46.178Z,15.17
2018-09-20T08:46:14.905Z,18.63
2018-09-20T08:48:43.881Z,13.97
2018-09-20T08:51:12.560Z,15.77
2018-09-20T08:53:41.312Z,13.87
2018-09-20T08:56:10.040Z,18.10
2018-09-20T08:58:38.694Z,14.47
2018-09-20T09:01:07.343Z,15.87
2018-09-20T09:03:36.653Z,13.80
2018-09-20T09:06:05.299Z,15.63
2018-09-20T09:08:33.899Z,17.97
2018-09-20T09:11:03.388Z,20.70
2018-09-20T09:13:31.976Z,15.43
2018-09-20T09:16:00.662Z,18.10
2018-09-20T09:18:29.203Z,19.83
2018-09-20T09:20:57.907Z,17.13
2018-09-20T09:23:26.489Z,13.50
2018-09-20T09:25:55.035Z,18.50
2018-09-20T09:28:23.751Z,19.17
2018-09-20T09:30:52.658Z,14.43
2018-09-20T09:33:21.383Z,18.57
2018-09-20T09:35:50.175Z,13.83
2018-09-20T09:38:19.097Z,15.00
2018-09-20T09:40:48.000Z,14.20
2018-09-20T09:43:17.289Z,17.73
2018-09-20T09:45:46.061Z,17.17
2018-09-20T09:48:14.903Z,15.03
2018-09-20T09:50:44.207Z,14.23
2018-09-20T09:53:13.123Z,17.87
2018-09-20T09:55:41.925Z,20.23
2018-09-20T09:58:11.009Z,16.70
2018-09-20T10:00:41.412Z,15.93
2018-09-20T10:03:10.172Z,11.73
2018-09-20T10:05:38.989Z,16.47
2018-09-20T10:08:07.783Z,18.37
2018-09-20T10:10:36.530Z,18.70
2018-09-20T10:13:05.387Z,14.73
2018-09-20T10:15:34.139Z,17.33
2018-09-20T10:18:02.994Z,19.33
2018-09-20T10:20:31.723Z,17.03
2018-09-20T10:23:00.407Z,23.23
2018-09-20T10:25:29.021Z,16.60
2018-09-20T10:27:57.664Z,13.60
2018-09-20T10:30:26.749Z,13.07
2018-09-20T10:32:55.502Z,11.03
2018-09-20T10:35:24.160Z,10.87
2018-09-20T10:37:52.847Z,12.33
2018-09-20T10:40:21.660Z,15.20
2018-09-20T10:42:50.311Z,13.43
2018-09-20T10:45:19.102Z,13.53
2018-09-20T10:47:48.517Z,12.60
2018-09-20T10:50:17.224Z,13.27
2018-09-20T10:52:45.994Z,14.63
2018-09-20T10:55:14.867Z,10.83
2018-09-20T10:57:43.648Z,10.60
2018-09-20T11:00:12.343Z,11.17
2018-09-20T11:02:41.742Z,13.30
2018-09-20T11:05:10.354Z,9.03
2018-09-20T11:07:39.290Z,10.20
2018-09-20T11:10:08.261Z,9.67
2018-09-20T11:12:36.974Z,9.83
2018-09-20T11:15:06.400Z,8.73
2018-09-20T11:17:35.163Z,9.90
2018-09-20T11:20:04.519Z,11.73
2018-09-20T11:22:33.522Z,13.77
2018-09-20T11:25:02.499Z,9.23
2018-09-20T11:27:31.175Z,12.27
2018-09-20T11:29:59.926Z,13.80
2018-09-20T11:32:30.268Z,13.00
2018-09-20T11:34:58.874Z,11.90
2018-09-20T11:37:27.564Z,9.60
2018-09-20T11:39:56.151Z,11.70
2018-09-20T11:42:24.883Z,10.63
2018-09-20T11:44:53.689Z,5.60
2018-09-20T11:47:22.436Z,9.27
2018-09-20T11:49:51.084Z,8.37
2018-09-20T11:52:19.947Z,11.73
2018-09-20T11:54:48.564Z,9.60
2018-09-20T11:57:17.396Z,13.63
2018-09-20T11:59:46.056Z,16.83
2018-09-20T12:02:14.928Z,15.03
2018-09-20T12:04:43.619Z,12.97
2018-09-20T12:07:12.296Z,15.87
2018-09-20T12:09:41.061Z,12.83
2018-09-20T12:12:09.721Z,10.33
2018-09-20T12:14:38.596Z,9.60
2018-09-20T12:17:07.198Z,8.97
2018-09-20T12:19:35.742Z,10.67
2018-09-20T12:22:04.483Z,10.47
2018-09-20T12:24:33.103Z,8.30
2018-09-20T12:27:06.058Z,9.70
2018-09-20T12:29:34.776Z,11.77
2018-09-20T12:32:04.028Z,7.37
2018-09-20T12:34:32.651Z,7.70
2018-09-20T12:37:01.882Z,13.20
2018-09-20T12:39:30.488Z,9.50
2018-09-20T12:42:02.859Z,13.10
2018-09-20T12:44:31.496Z,6.70
2018-09-20T12:47:00.205Z,8.57
2018-09-20T12:49:28.864Z,13.17
2018-09-20T12:51:57.756Z,13.77
2018-09-20T12:54:26.392Z,13.20
2018-09-20T12:56:54.919Z,9.50
2018-09-20T12:59:23.467Z,12.73
2018-09-20T13:01:52.108Z,13.63
2018-09-20T13:04:20.700Z,12.97
2018-09-20T13:06:49.299Z,10.60
2018-09-20T13:09:17.923Z,9.30
2018-09-20T13:11:46.491Z,10.03
2018-09-20T13:14:15.078Z,11.57
2018-09-20T13:16:43.765Z,12.60
2018-09-20T13:19:12.345Z,12.50
2018-09-20T13:21:41.068Z,12.07
2018-09-20T13:24:09.821Z,9.63
2018-09-20T13:26:38.533Z,10.83
2018-09-20T13:29:08.318Z,10.97
2018-09-20T13:31:37.524Z,10.97
2018-09-20T13:34:06.931Z,12.03
2018-09-20T13:36:35.548Z,14.67
2018-09-20T13:39:06.312Z,11.70
2018-09-20T13:41:35.019Z,9.83
2018-09-20T13:44:03.718Z,10.57
2018-09-20T13:46:32.400Z,8.80
2018-09-20T13:49:01.156Z,10.57
2018-09-20T13:51:29.893Z,9.33
2018-09-20T13:53:58.603Z,12.53
2018-09-20T13:56:27.568Z,12.13
2018-09-20T13:58:56.642Z,12.20
2018-09-20T14:01:25.363Z,10.97
2018-09-20T14:03:54.942Z,12.33
2018-09-20T14:06:23.705Z,10.90
2018-09-20T14:08:52.432Z,9.47
2018-09-20T14:11:21.215Z,9.90
2018-09-20T14:13:49.844Z,10.97
2018-09-20T14:16:19.560Z,10.27
2018-09-20T14:19:22.307Z,10.07
2018-09-20T14:21:50.977Z,10.10
2018-09-20T14:24:19.518Z,13.33
2018-09-20T14:26:48.255Z,9.13
2018-09-20T14:29:16.951Z,11.97
2018-09-20T14:31:45.646Z,12.07
2018-09-20T14:34:14.301Z,11.33
2018-09-20T14:36:42.925Z,7.67
2018-09-20T14:39:13.266Z,8.47
2018-09-20T14:41:42.096Z,7.13
2018-09-20T14:44:10.715Z,10.70
2018-09-20T14:46:39.295Z,11.50
2018-09-20T14:49:11.653Z,10.60
2018-09-20T14:51:40.261Z,11.17
2018-09-20T14:54:08.826Z,9.60
2018-09-20T14:56:37.366Z,14.03
2018-09-20T14:59:06.823Z,11.10
2018-09-20T15:01:35.391Z,8.93
2018-09-20T15:04:03.926Z,11.77
2018-09-20T15:06:32.575Z,7.93
2018-09-20T15:09:01.739Z,14.70
2018-09-20T15:11:30.333Z,14.87
2018-09-20T15:13:58.872Z,14.00
2018-09-20T15:16:27.626Z,10.37
2018-09-20T15:18:56.204Z,10.27
2018-09-20T15:21:24.921Z,11.53
2018-09-20T15:23:53.543Z,12.10
2018-09-20T15:26:23.806Z,11.47
2018-09-20T15:28:52.484Z,10.00
2018-09-20T15:32:50.578Z,11.80
2018-09-20T15:35:19.198Z,9.70
2018-09-20T15:37:47.781Z,12.07
2018-09-20T15:40:16.358Z,20.93
2018-09-20T15:42:45.001Z,13.80
2018-09-20T15:45:13.547Z,16.60
2018-09-20T15:47:42.235Z,13.07
2018-09-20T15:50:10.760Z,13.70
2018-09-20T15:52:39.998Z,12.47
2018-09-20T15:55:08.700Z,8.97
2018-09-20T15:57:37.388Z,10.63
2018-09-20T16:00:06.367Z,10.77
2018-09-20T16:02:35.036Z,10.10
2018-09-20T16:05:03.815Z,12.73
2018-09-20T16:07:32.472Z,10.37
2018-09-20T16:10:01.080Z,8.20
2018-09-20T16:12:30.253Z,9.13
2018-09-20T16:14:59.321Z,8.90
2018-09-20T16:17:28.049Z,8.87
2018-09-20T16:19:56.649Z,8.70
2018-09-20T16:22:25.254Z,8.50
2018-09-20T16:24:54.675Z,11.47
2018-09-20T16:27:23.274Z,10.27
2018-09-20T16:30:21.831Z,15.83
2018-09-20T16:36:03.221Z,9.40
2018-09-20T16:38:43.239Z,8.33
2018-09-20T16:41:14.316Z,8.07
2018-09-20T16:43:44.063Z,8.43
2018-09-20T16:46:12.638Z,15.67
2018-09-20T16:48:41.400Z,10.10
2018-09-20T16:51:10.140Z,10.67
2018-09-20T16:53:38.716Z,14.87
2018-09-20T16:56:07.989Z,10.50
2018-09-20T16:58:36.712Z,14.57
2018-09-20T17:01:10.864Z,13.03
2018-09-20T17:03:39.644Z,15.07
2018-09-20T17:06:08.405Z,13.90
2018-09-20T17:08:37.030Z,10.07
2018-09-20T17:11:05.695Z,15.93
2018-09-20T17:13:34.366Z,13.30
2018-09-20T17:16:03.148Z,10.80
2018-09-20T17:18:31.696Z,12.03
2018-09-20T17:21:00.407Z,14.83
2018-09-20T17:23:29.094Z,13.70
2018-09-20T17:25:57.688Z,13.20
2018-09-20T17:28:26.297Z,12.57
2018-09-20T17:30:55.102Z,11.37
2018-09-20T17:33:23.758Z,11.40
2018-09-20T17:35:53.887Z,15.23
2018-09-20T17:38:23.301Z,13.97
2018-09-20T17:40:56.216Z,8.73
2018-09-20T17:43:30.262Z,14.17
2018-09-20T17:45:58.938Z,15.20
2018-09-20T17:48:27.704Z,11.10
2018-09-20T17:50:56.771Z,10.37
2018-09-20T17:53:28.946Z,13.07
2018-09-20T17:55:59.071Z,11.10
2018-09-20T17:58:29.133Z,14.03
2018-09-20T18:00:58.193Z,12.07
2018-09-20T18:03:26.931Z,12.03
2018-09-20T18:05:55.606Z,10.77
2018-09-20T18:08:24.353Z,12.70
2018-09-20T18:10:53.051Z,13.23
2018-09-20T18:13:21.808Z,12.77
2018-09-20T18:15:50.523Z,12.07
2018-09-20T18:18:19.401Z,14.87
2018-09-20T18:20:48.275Z,14.77
2018-09-20T18:23:16.911Z,13.10
2018-09-20T18:25:45.668Z,8.50
2018-09-20T18:28:14.276Z,12.13
2018-09-20T18:30:43.247Z,10.83
2018-09-20T18:33:12.445Z,11.00
2018-09-20T18:35:41.169Z,13.70
2018-09-20T18:38:09.791Z,10.03
2018-09-20T18:40:38.473Z,10.00
2018-09-20T18:43:07.092Z,12.40
2018-09-20T18:45:35.657Z,10.70
2018-09-20T18:48:04.220Z,15.10
2018-09-20T18:50:32.844Z,14.23
2018-09-20T18:53:01.466Z,10.87
2018-09-20T18:55:30.107Z,14.63
2018-09-20T18:57:58.681Z,10.90
2018-09-20T19:00:27.311Z,11.37
2018-09-20T19:02:55.848Z,10.40
2018-09-20T19:05:24.447Z,11.40
2018-09-20T19:07:53.063Z,10.70
2018-09-20T19:10:21.648Z,11.93
2018-09-20T19:12:50.231Z,12.40
2018-09-20T19:15:18.784Z,9.77
2018-09-20T19:17:47.331Z,10.57
2018-09-20T19:20:15.961Z,9.37
2018-09-20T19:22:44.617Z,9.43
2018-09-20T19:25:13.188Z,11.03
2018-09-20T19:27:41.820Z,10.57
2018-09-20T19:30:10.411Z,6.70
2018-09-20T19:32:39.068Z,10.47
2018-09-20T19:35:08.351Z,14.53
2018-09-20T19:37:36.980Z,10.13
2018-09-20T19:40:05.624Z,13.27
2018-09-20T19:42:34.339Z,11.97
2018-09-20T19:45:02.898Z,10.87
2018-09-20T19:47:31.449Z,11.87
2018-09-20T19:50:00.067Z,9.50
2018-09-20T19:52:28.758Z,9.63
2018-09-20T19:54:57.321Z,10.60
2018-09-20T19:57:25.952Z,9.87
2018-09-20T19:59:55.507Z,10.50
2018-09-20T20:02:24.295Z,12.67
2018-09-20T20:04:52.869Z,8.10
2018-09-20T20:07:21.443Z,7.57
2018-09-20T20:09:49.983Z,8.00
2018-09-20T20:12:18.625Z,9.23
2018-09-20T20:14:47.175Z,7.63
2018-09-20T20:17:15.856Z,8.10
2018-09-20T20:19:44.549Z,11.07
2018-09-20T20:22:13.120Z,9.97
2018-09-20T20:24:41.883Z,8.57
2018-09-20T20:27:10.430Z,7.93
2018-09-20T20:29:38.943Z,10.20
2018-09-20T20:32:07.501Z,10.23
2018-09-20T20:34:36.105Z,10.97
2018-09-20T20:37:05.587Z,8.57
2018-09-20T20:39:34.230Z,11.03
2018-09-20T20:42:03.576Z,10.27
2018-09-20T20:44:32.146Z,9.17
2018-09-20T20:47:00.678Z,7.07
2018-09-20T20:49:29.283Z,11.53
2018-09-20T20:52:05.253Z,10.87
2018-09-20T20:54:39.390Z,8.87
2018-09-20T20:57:07.974Z,9.20
2018-09-20T20:59:36.517Z,9.17
2018-09-20T21:02:05.191Z,8.23
2018-09-20T21:04:33.710Z,7.60
2018-09-20T21:07:02.264Z,6.93
2018-09-20T21:09:30.903Z,8.03
2018-09-20T21:11:59.513Z,7.40
2018-09-20T21:14:28.363Z,7.83
2018-09-20T21:16:57.236Z,8.70
2018-09-20T21:19:25.820Z,6.70
2018-09-20T21:21:54.474Z,12.03
2018-09-20T21:24:24.041Z,7.97
2018-09-20T21:26:52.623Z,10.67
2018-09-20T21:29:21.335Z,8.47
2018-09-20T21:31:50.043Z,6.60
2018-09-20T21:34:18.567Z,6.83
2018-09-20T21:36:47.301Z,7.40
2018-09-20T21:39:15.828Z,8.90
2018-09-20T21:41:45.075Z,8.87
2018-09-20T21:44:13.665Z,10.23
2018-09-20T21:46:42.208Z,6.27
2018-09-20T21:49:11.036Z,8.57
2018-09-20T21:51:39.598Z,9.30
2018-09-20T21:54:08.213Z,10.80
2018-09-20T21:56:36.779Z,8.50
2018-09-20T21:59:05.488Z,12.27
2018-09-20T22:01:40.256Z,7.50
2018-09-20T22:04:08.867Z,7.43
2018-09-20T22:06:37.591Z,9.07
2018-09-20T22:09:09.059Z,8.30
2018-09-20T22:11:38.205Z,10.77
2018-09-20T22:14:06.825Z,7.67
2018-09-20T22:16:35.541Z,7.67
2018-09-20T22:19:04.151Z,8.67
2018-09-20T22:21:32.740Z,6.70
2018-09-20T22:24:01.281Z,6.87
2018-09-20T22:26:29.905Z,10.07
2018-09-20T22:28:58.549Z,9.37
2018-09-20T22:31:27.197Z,11.43
2018-09-20T22:33:56.498Z,10.93
2018-09-20T22:36:25.113Z,10.43
2018-09-20T22:38:53.749Z,8.23
2018-09-20T22:41:23.017Z,8.17
2018-09-20T22:43:51.665Z,6.90
2018-09-20T22:46:20.729Z,6.50
2018-09-20T22:48:49.364Z,6.23
2018-09-20T22:51:17.929Z,11.47
2018-09-20T22:53:46.506Z,6.60
2018-09-20T22:56:15.031Z,8.60
2018-09-20T22:58:43.649Z,7.03
2018-09-20T23:01:16.551Z,7.67
2018-09-20T23:03:45.690Z,9.60
2018-09-20T23:06:14.276Z,9.17
2018-09-20T23:08:42.820Z,7.43
2018-09-20T23:11:11.426Z,8.73
2018-09-20T23:13:40.114Z,8.30
2018-09-20T23:16:08.617Z,8.27
2018-09-20T23:18:37.148Z,8.03
2018-09-20T23:21:05.867Z,7.17
2018-09-20T23:23:34.511Z,6.57
2018-09-20T23:26:03.682Z,6.53
2018-09-20T23:28:32.850Z,6.27
2018-09-20T23:31:01.408Z,6.70
2018-09-20T23:33:29.982Z,8.67
2018-09-20T23:35:58.760Z,7.50
2018-09-20T23:38:27.559Z,8.87
2018-09-20T23:40:56.358Z,10.47
2018-09-20T23:43:25.163Z,9.80
2018-09-20T23:45:54.248Z,8.23
2018-09-20T23:48:23.893Z,7.40
2018-09-20T23:50:53.119Z,7.30
2018-09-20T23:53:21.935Z,7.00
2018-09-20T23:55:50.716Z,9.17
2018-09-20T23:58:20.090Z,9.60
